sensor_id;sensor_type;location;lat;lon;timestamp;temperature;humidity
44477;DHT22;30180;44.788;10.366;2024-02-21T00:02:10;17.50;66.80
44477;DHT22;30180;44.788;10.366;2024-02-21T00:04:38;17.50;66.70
44477;DHT22;30180;44.788;10.366;2024-02-21T00:07:08;17.50;66.70
44477;DHT22;30180;44.788;10.366;2024-02-21T00:09:37;17.40;66.70
44477;DHT22;30180;44.788;10.366;2024-02-21T00:12:06;17.50;66.80
44477;DHT22;30180;44.788;10.366;2024-02-21T00:14:35;17.50;66.70
44477;DHT22;30180;44.788;10.366;2024-02-21T00:17:03;17.40;66.70
44477;DHT22;30180;44.788;10.366;2024-02-21T00:19:32;17.40;66.70
44477;DHT22;30180;44.788;10.366;2024-02-21T00:22:01;17.50;66.80
44477;DHT22;30180;44.788;10.366;2024-02-21T00:24:31;17.40;66.70
44477;DHT22;30180;44.788;10.366;2024-02-21T00:26:59;17.40;66.70
44477;DHT22;30180;44.788;10.366;2024-02-21T00:29:27;17.40;66.60
44477;DHT22;30180;44.788;10.366;2024-02-21T00:31:56;17.40;66.60
44477;DHT22;30180;44.788;10.366;2024-02-21T00:34:24;17.40;66.60
44477;DHT22;30180;44.788;10.366;2024-02-21T00:36:53;17.40;66.70
44477;DHT22;30180;44.788;10.366;2024-02-21T00:39:21;17.40;66.60
44477;DHT22;30180;44.788;10.366;2024-02-21T00:41:51;17.40;66.60
44477;DHT22;30180;44.788;10.366;2024-02-21T00:44:20;17.40;66.60
44477;DHT22;30180;44.788;10.366;2024-02-21T00:46:48;17.40;66.60
44477;DHT22;30180;44.788;10.366;2024-02-21T00:49:17;17.40;66.60
44477;DHT22;30180;44.788;10.366;2024-02-21T00:51:46;17.40;66.60
44477;DHT22;30180;44.788;10.366;2024-02-21T00:54:15;17.40;66.60
44477;DHT22;30180;44.788;10.366;2024-02-21T00:56:43;17.40;66.60
44477;DHT22;30180;44.788;10.366;2024-02-21T00:59:13;17.40;66.60
44477;DHT22;30180;44.788;10.366;2024-02-21T01:01:41;17.40;66.70
44477;DHT22;30180;44.788;10.366;2024-02-21T01:04:10;17.40;66.60
44477;DHT22;30180;44.788;10.366;2024-02-21T01:06:39;17.40;66.60
44477;DHT22;30180;44.788;10.366;2024-02-21T01:09:10;17.40;66.70
44477;DHT22;30180;44.788;10.366;2024-02-21T01:11:38;17.40;66.60
44477;DHT22;30180;44.788;10.366;2024-02-21T01:14:07;17.40;66.60
44477;DHT22;30180;44.788;10.366;2024-02-21T01:16:37;17.40;66.60
44477;DHT22;30180;44.788;10.366;2024-02-21T01:19:05;17.40;66.60
44477;DHT22;30180;44.788;10.366;2024-02-21T01:21:34;17.40;66.60
44477;DHT22;30180;44.788;10.366;2024-02-21T01:24:03;17.40;66.60
44477;DHT22;30180;44.788;10.366;2024-02-21T01:26:31;17.40;66.60
44477;DHT22;30180;44.788;10.366;2024-02-21T01:29:00;17.40;66.60
44477;DHT22;30180;44.788;10.366;2024-02-21T01:31:29;17.40;66.60
44477;DHT22;30180;44.788;10.366;2024-02-21T01:33:59;17.40;66.60
44477;DHT22;30180;44.788;10.366;2024-02-21T01:36:28;17.40;66.60
44477;DHT22;30180;44.788;10.366;2024-02-21T01:38:56;17.40;66.60
44477;DHT22;30180;44.788;10.366;2024-02-21T01:41:24;17.40;66.60
44477;DHT22;30180;44.788;10.366;2024-02-21T01:43:53;17.40;66.60
44477;DHT22;30180;44.788;10.366;2024-02-21T01:46:21;17.40;66.60
44477;DHT22;30180;44.788;10.366;2024-02-21T01:48:50;17.40;66.60
44477;DHT22;30180;44.788;10.366;2024-02-21T01:51:20;17.30;66.60
44477;DHT22;30180;44.788;10.366;2024-02-21T01:53:51;17.30;66.60
44477;DHT22;30180;44.788;10.366;2024-02-21T01:56:20;17.30;66.60
44477;DHT22;30180;44.788;10.366;2024-02-21T01:58:49;17.30;66.60
44477;DHT22;30180;44.788;10.366;2024-02-21T02:01:20;17.30;66.60
44477;DHT22;30180;44.788;10.366;2024-02-21T02:03:49;17.30;66.60
44477;DHT22;30180;44.788;10.366;2024-02-21T02:06:18;17.30;66.60
44477;DHT22;30180;44.788;10.366;2024-02-21T02:08:47;17.30;66.60
44477;DHT22;30180;44.788;10.366;2024-02-21T02:11:16;17.30;66.60
44477;DHT22;30180;44.788;10.366;2024-02-21T02:13:45;17.30;66.60
44477;DHT22;30180;44.788;10.366;2024-02-21T02:16:13;17.30;66.60
44477;DHT22;30180;44.788;10.366;2024-02-21T02:18:42;17.30;66.60
44477;DHT22;30180;44.788;10.366;2024-02-21T02:21:16;17.30;67.20
44477;DHT22;30180;44.788;10.366;2024-02-21T02:23:51;17.30;66.60
44477;DHT22;30180;44.788;10.366;2024-02-21T02:26:20;17.30;66.60
44477;DHT22;30180;44.788;10.366;2024-02-21T02:28:48;17.30;66.60
44477;DHT22;30180;44.788;10.366;2024-02-21T02:31:17;17.30;66.60
44477;DHT22;30180;44.788;10.366;2024-02-21T02:33:45;17.30;66.60
44477;DHT22;30180;44.788;10.366;2024-02-21T02:36:15;17.30;66.60
44477;DHT22;30180;44.788;10.366;2024-02-21T02:38:44;17.30;66.60
44477;DHT22;30180;44.788;10.366;2024-02-21T02:41:14;17.30;66.60
44477;DHT22;30180;44.788;10.366;2024-02-21T02:43:43;17.30;66.60
44477;DHT22;30180;44.788;10.366;2024-02-21T02:46:11;17.30;66.60
44477;DHT22;30180;44.788;10.366;2024-02-21T02:48:40;17.30;66.60
44477;DHT22;30180;44.788;10.366;2024-02-21T02:51:08;17.30;66.60
44477;DHT22;30180;44.788;10.366;2024-02-21T02:53:37;17.20;66.50
44477;DHT22;30180;44.788;10.366;2024-02-21T02:56:05;17.30;66.60
44477;DHT22;30180;44.788;10.366;2024-02-21T02:58:35;17.30;66.60
44477;DHT22;30180;44.788;10.366;2024-02-21T03:01:06;17.30;66.60
44477;DHT22;30180;44.788;10.366;2024-02-21T03:03:35;17.20;66.50
44477;DHT22;30180;44.788;10.366;2024-02-21T03:06:04;17.20;66.50
44477;DHT22;30180;44.788;10.366;2024-02-21T03:08:32;17.20;66.50
44477;DHT22;30180;44.788;10.366;2024-02-21T03:11:01;17.20;66.50
44477;DHT22;30180;44.788;10.366;2024-02-21T03:13:30;17.20;66.50
44477;DHT22;30180;44.788;10.366;2024-02-21T03:16:00;17.20;66.50
44477;DHT22;30180;44.788;10.366;2024-02-21T03:18:28;17.20;66.50
44477;DHT22;30180;44.788;10.366;2024-02-21T03:20:57;17.20;66.50
44477;DHT22;30180;44.788;10.366;2024-02-21T03:23:25;17.20;66.50
44477;DHT22;30180;44.788;10.366;2024-02-21T03:25:53;17.20;66.50
44477;DHT22;30180;44.788;10.366;2024-02-21T03:28:22;17.20;66.50
44477;DHT22;30180;44.788;10.366;2024-02-21T03:30:50;17.20;66.50
44477;DHT22;30180;44.788;10.366;2024-02-21T03:33:20;17.20;66.50
44477;DHT22;30180;44.788;10.366;2024-02-21T03:35:50;17.20;66.50
44477;DHT22;30180;44.788;10.366;2024-02-21T03:38:19;17.20;66.50
44477;DHT22;30180;44.788;10.366;2024-02-21T03:40:47;17.20;66.60
44477;DHT22;30180;44.788;10.366;2024-02-21T03:43:16;17.20;66.50
44477;DHT22;30180;44.788;10.366;2024-02-21T03:45:44;17.20;66.50
44477;DHT22;30180;44.788;10.366;2024-02-21T03:48:13;17.20;66.50
44477;DHT22;30180;44.788;10.366;2024-02-21T03:50:43;17.20;66.50
44477;DHT22;30180;44.788;10.366;2024-02-21T03:53:12;17.20;66.50
44477;DHT22;30180;44.788;10.366;2024-02-21T03:55:40;17.20;66.50
44477;DHT22;30180;44.788;10.366;2024-02-21T03:58:09;17.20;66.50
44477;DHT22;30180;44.788;10.366;2024-02-21T04:00:37;17.10;66.50
44477;DHT22;30180;44.788;10.366;2024-02-21T04:03:06;17.20;66.50
44477;DHT22;30180;44.788;10.366;2024-02-21T04:05:35;17.20;66.50
44477;DHT22;30180;44.788;10.366;2024-02-21T04:08:05;17.10;66.40
44477;DHT22;30180;44.788;10.366;2024-02-21T04:10:35;17.20;66.50
44477;DHT22;30180;44.788;10.366;2024-02-21T04:13:05;17.20;66.50
44477;DHT22;30180;44.788;10.366;2024-02-21T04:15:34;17.20;66.50
44477;DHT22;30180;44.788;10.366;2024-02-21T04:18:02;17.20;66.50
44477;DHT22;30180;44.788;10.366;2024-02-21T04:20:31;17.10;66.40
44477;DHT22;30180;44.788;10.366;2024-02-21T04:22:59;17.20;66.50
44477;DHT22;30180;44.788;10.366;2024-02-21T04:25:29;17.20;66.60
44477;DHT22;30180;44.788;10.366;2024-02-21T04:27:58;17.20;66.50
44477;DHT22;30180;44.788;10.366;2024-02-21T04:30:26;17.20;66.50
44477;DHT22;30180;44.788;10.366;2024-02-21T04:32:55;17.20;66.50
44477;DHT22;30180;44.788;10.366;2024-02-21T04:35:24;17.20;66.50
44477;DHT22;30180;44.788;10.366;2024-02-21T04:37:52;17.20;66.60
44477;DHT22;30180;44.788;10.366;2024-02-21T04:40:21;17.20;66.60
44477;DHT22;30180;44.788;10.366;2024-02-21T04:42:51;17.20;66.60
44477;DHT22;30180;44.788;10.366;2024-02-21T04:45:19;17.20;66.60
44477;DHT22;30180;44.788;10.366;2024-02-21T04:47:48;17.20;66.60
44477;DHT22;30180;44.788;10.366;2024-02-21T04:50:17;17.30;66.70
44477;DHT22;30180;44.788;10.366;2024-02-21T04:52:46;17.30;66.70
44477;DHT22;30180;44.788;10.366;2024-02-21T04:55:15;17.30;66.80
44477;DHT22;30180;44.788;10.366;2024-02-21T04:57:44;17.30;66.70
44477;DHT22;30180;44.788;10.366;2024-02-21T05:00:16;17.30;66.70
44477;DHT22;30180;44.788;10.366;2024-02-21T05:02:44;17.40;66.80
44477;DHT22;30180;44.788;10.366;2024-02-21T05:05:13;17.40;66.80
44477;DHT22;30180;44.788;10.366;2024-02-21T05:07:44;17.40;66.80
44477;DHT22;30180;44.788;10.366;2024-02-21T05:10:12;17.40;66.80
44477;DHT22;30180;44.788;10.366;2024-02-21T05:12:41;17.40;66.80
44477;DHT22;30180;44.788;10.366;2024-02-21T05:15:10;17.40;66.80
44477;DHT22;30180;44.788;10.366;2024-02-21T05:17:40;17.40;66.80
44477;DHT22;30180;44.788;10.366;2024-02-21T05:20:10;17.50;66.90
44477;DHT22;30180;44.788;10.366;2024-02-21T05:22:39;17.50;66.90
44477;DHT22;30180;44.788;10.366;2024-02-21T05:25:08;17.50;66.90
44477;DHT22;30180;44.788;10.366;2024-02-21T05:27:37;17.50;66.90
44477;DHT22;30180;44.788;10.366;2024-02-21T05:30:07;17.50;66.90
44477;DHT22;30180;44.788;10.366;2024-02-21T05:32:36;17.50;66.90
44477;DHT22;30180;44.788;10.366;2024-02-21T05:35:07;17.60;67.00
44477;DHT22;30180;44.788;10.366;2024-02-21T05:37:36;17.60;66.90
44477;DHT22;30180;44.788;10.366;2024-02-21T05:40:07;17.60;66.90
44477;DHT22;30180;44.788;10.366;2024-02-21T05:42:35;17.60;66.90
44477;DHT22;30180;44.788;10.366;2024-02-21T05:45:05;17.70;67.00
44477;DHT22;30180;44.788;10.366;2024-02-21T05:47:34;17.70;67.00
44477;DHT22;30180;44.788;10.366;2024-02-21T05:50:03;17.70;66.90
44477;DHT22;30180;44.788;10.366;2024-02-21T05:52:33;17.70;67.00
44477;DHT22;30180;44.788;10.366;2024-02-21T05:55:02;17.70;67.00
44477;DHT22;30180;44.788;10.366;2024-02-21T05:57:30;17.80;67.00
44477;DHT22;30180;44.788;10.366;2024-02-21T05:59:59;17.80;67.10
44477;DHT22;30180;44.788;10.366;2024-02-21T06:02:27;17.80;67.00
44477;DHT22;30180;44.788;10.366;2024-02-21T06:04:56;17.80;67.00
44477;DHT22;30180;44.788;10.366;2024-02-21T06:07:25;17.80;67.00
44477;DHT22;30180;44.788;10.366;2024-02-21T06:09:55;17.90;67.10
44477;DHT22;30180;44.788;10.366;2024-02-21T06:12:24;17.90;67.10
44477;DHT22;30180;44.788;10.366;2024-02-21T06:14:52;18.00;67.10
44477;DHT22;30180;44.788;10.366;2024-02-21T06:17:21;17.90;67.00
44477;DHT22;30180;44.788;10.366;2024-02-21T06:19:50;17.90;67.00
44477;DHT22;30180;44.788;10.366;2024-02-21T06:22:18;18.00;67.00
44477;DHT22;30180;44.788;10.366;2024-02-21T06:24:47;18.00;67.00
44477;DHT22;30180;44.788;10.366;2024-02-21T06:27:18;18.00;67.00
44477;DHT22;30180;44.788;10.366;2024-02-21T06:29:47;18.00;67.00
44477;DHT22;30180;44.788;10.366;2024-02-21T06:32:16;18.00;67.00
44477;DHT22;30180;44.788;10.366;2024-02-21T06:34:44;18.10;67.00
44477;DHT22;30180;44.788;10.366;2024-02-21T06:37:13;18.10;67.00
44477;DHT22;30180;44.788;10.366;2024-02-21T06:39:41;18.10;66.90
44477;DHT22;30180;44.788;10.366;2024-02-21T06:42:11;18.10;66.90
44477;DHT22;30180;44.788;10.366;2024-02-21T06:44:41;18.10;66.90
44477;DHT22;30180;44.788;10.366;2024-02-21T06:47:09;18.10;66.90
44477;DHT22;30180;44.788;10.366;2024-02-21T06:49:38;18.10;66.80
44477;DHT22;30180;44.788;10.366;2024-02-21T06:52:08;18.10;66.80
44477;DHT22;30180;44.788;10.366;2024-02-21T06:54:37;18.10;66.80
44477;DHT22;30180;44.788;10.366;2024-02-21T06:57:07;18.10;66.80
44477;DHT22;30180;44.788;10.366;2024-02-21T06:59:35;18.10;66.70
44477;DHT22;30180;44.788;10.366;2024-02-21T07:02:06;18.10;66.70
44477;DHT22;30180;44.788;10.366;2024-02-21T07:04:35;18.10;66.70
44477;DHT22;30180;44.788;10.366;2024-02-21T07:07:04;18.10;66.70
44477;DHT22;30180;44.788;10.366;2024-02-21T07:09:33;18.10;66.60
44477;DHT22;30180;44.788;10.366;2024-02-21T07:12:03;18.10;66.60
44477;DHT22;30180;44.788;10.366;2024-02-21T07:14:32;18.10;66.60
44477;DHT22;30180;44.788;10.366;2024-02-21T07:17:01;18.10;66.70
44477;DHT22;30180;44.788;10.366;2024-02-21T07:19:32;18.10;66.60
44477;DHT22;30180;44.788;10.366;2024-02-21T07:22:03;18.20;66.60
44477;DHT22;30180;44.788;10.366;2024-02-21T07:24:32;18.10;66.50
44477;DHT22;30180;44.788;10.366;2024-02-21T07:27:01;18.10;66.60
44477;DHT22;30180;44.788;10.366;2024-02-21T07:29:32;18.10;66.50
44477;DHT22;30180;44.788;10.366;2024-02-21T07:32:02;18.10;66.50
44477;DHT22;30180;44.788;10.366;2024-02-21T07:34:32;18.10;66.50
44477;DHT22;30180;44.788;10.366;2024-02-21T07:37:00;18.10;66.50
44477;DHT22;30180;44.788;10.366;2024-02-21T07:39:29;18.10;66.40
44477;DHT22;30180;44.788;10.366;2024-02-21T07:41:58;18.10;66.40
44477;DHT22;30180;44.788;10.366;2024-02-21T07:44:26;18.10;66.40
44477;DHT22;30180;44.788;10.366;2024-02-21T07:46:55;18.10;66.40
44477;DHT22;30180;44.788;10.366;2024-02-21T07:49:24;18.10;66.40
44477;DHT22;30180;44.788;10.366;2024-02-21T07:51:54;18.10;66.40
44477;DHT22;30180;44.788;10.366;2024-02-21T07:54:23;18.00;66.30
44477;DHT22;30180;44.788;10.366;2024-02-21T07:56:51;18.10;66.30
44477;DHT22;30180;44.788;10.366;2024-02-21T07:59:20;18.00;66.20
44477;DHT22;30180;44.788;10.366;2024-02-21T08:01:48;18.00;66.20
44477;DHT22;30180;44.788;10.366;2024-02-21T08:04:17;18.00;66.20
44477;DHT22;30180;44.788;10.366;2024-02-21T08:06:45;18.00;66.20
44477;DHT22;30180;44.788;10.366;2024-02-21T08:09:17;18.00;66.20
44477;DHT22;30180;44.788;10.366;2024-02-21T08:11:45;18.00;66.20
44477;DHT22;30180;44.788;10.366;2024-02-21T08:14:14;18.00;66.20
44477;DHT22;30180;44.788;10.366;2024-02-21T08:16:47;18.00;66.10
44477;DHT22;30180;44.788;10.366;2024-02-21T08:19:15;18.00;66.10
44477;DHT22;30180;44.788;10.366;2024-02-21T08:21:45;18.00;66.10
44477;DHT22;30180;44.788;10.366;2024-02-21T08:24:14;18.00;66.10
44477;DHT22;30180;44.788;10.366;2024-02-21T08:26:45;18.00;66.10
44477;DHT22;30180;44.788;10.366;2024-02-21T08:29:13;17.90;66.00
44477;DHT22;30180;44.788;10.366;2024-02-21T08:31:42;17.90;66.00
44477;DHT22;30180;44.788;10.366;2024-02-21T08:34:11;17.90;66.00
44477;DHT22;30180;44.788;10.366;2024-02-21T08:36:41;17.90;66.00
44477;DHT22;30180;44.788;10.366;2024-02-21T08:39:10;17.90;66.00
44477;DHT22;30180;44.788;10.366;2024-02-21T08:41:45;17.90;66.00
44477;DHT22;30180;44.788;10.366;2024-02-21T08:44:24;17.90;66.00
44477;DHT22;30180;44.788;10.366;2024-02-21T08:46:54;17.90;66.00
44477;DHT22;30180;44.788;10.366;2024-02-21T08:49:24;17.90;66.00
44477;DHT22;30180;44.788;10.366;2024-02-21T08:52:01;17.90;66.00
44477;DHT22;30180;44.788;10.366;2024-02-21T08:54:31;17.90;66.00
44477;DHT22;30180;44.788;10.366;2024-02-21T08:57:03;17.90;66.00
44477;DHT22;30180;44.788;10.366;2024-02-21T08:59:35;17.90;66.00
44477;DHT22;30180;44.788;10.366;2024-02-21T09:02:05;17.80;65.90
44477;DHT22;30180;44.788;10.366;2024-02-21T09:04:34;17.80;65.90
44477;DHT22;30180;44.788;10.366;2024-02-21T09:07:03;17.80;65.90
44477;DHT22;30180;44.788;10.366;2024-02-21T09:09:33;17.80;65.90
44477;DHT22;30180;44.788;10.366;2024-02-21T09:12:04;17.80;65.90
44477;DHT22;30180;44.788;10.366;2024-02-21T09:14:34;17.80;65.90
44477;DHT22;30180;44.788;10.366;2024-02-21T09:17:03;17.80;65.90
44477;DHT22;30180;44.788;10.366;2024-02-21T09:19:32;17.80;65.80
44477;DHT22;30180;44.788;10.366;2024-02-21T09:22:01;17.70;65.80
44477;DHT22;30180;44.788;10.366;2024-02-21T09:24:30;17.80;65.80
44477;DHT22;30180;44.788;10.366;2024-02-21T09:26:59;17.80;65.80
44477;DHT22;30180;44.788;10.366;2024-02-21T09:29:29;17.70;65.70
44477;DHT22;30180;44.788;10.366;2024-02-21T09:32:00;17.70;65.70
44477;DHT22;30180;44.788;10.366;2024-02-21T09:34:30;17.70;65.70
44477;DHT22;30180;44.788;10.366;2024-02-21T09:36:59;17.70;65.70
44477;DHT22;30180;44.788;10.366;2024-02-21T09:39:28;17.70;65.80
44477;DHT22;30180;44.788;10.366;2024-02-21T09:42:02;17.70;65.70
44477;DHT22;30180;44.788;10.366;2024-02-21T09:44:36;17.70;65.70
44477;DHT22;30180;44.788;10.366;2024-02-21T09:47:09;17.70;65.70
44477;DHT22;30180;44.788;10.366;2024-02-21T09:49:41;17.70;65.70
44477;DHT22;30180;44.788;10.366;2024-02-21T09:52:12;17.70;65.70
44477;DHT22;30180;44.788;10.366;2024-02-21T09:54:41;17.60;65.70
44477;DHT22;30180;44.788;10.366;2024-02-21T09:57:13;17.70;65.70
44477;DHT22;30180;44.788;10.366;2024-02-21T09:59:43;17.70;65.70
44477;DHT22;30180;44.788;10.366;2024-02-21T10:02:13;17.70;65.70
44477;DHT22;30180;44.788;10.366;2024-02-21T10:04:42;17.60;65.60
44477;DHT22;30180;44.788;10.366;2024-02-21T10:07:11;17.60;65.60
44477;DHT22;30180;44.788;10.366;2024-02-21T10:09:39;17.60;65.60
44477;DHT22;30180;44.788;10.366;2024-02-21T10:12:09;17.60;65.60
44477;DHT22;30180;44.788;10.366;2024-02-21T10:14:40;17.60;65.70
44477;DHT22;30180;44.788;10.366;2024-02-21T10:17:16;17.60;65.60
44477;DHT22;30180;44.788;10.366;2024-02-21T10:19:46;17.60;65.70
44477;DHT22;30180;44.788;10.366;2024-02-21T10:22:15;17.60;65.70
44477;DHT22;30180;44.788;10.366;2024-02-21T10:24:44;17.60;65.70
44477;DHT22;30180;44.788;10.366;2024-02-21T10:27:13;17.60;65.80
44477;DHT22;30180;44.788;10.366;2024-02-21T10:29:42;17.60;65.70
44477;DHT22;30180;44.788;10.366;2024-02-21T10:32:13;17.60;65.80
44477;DHT22;30180;44.788;10.366;2024-02-21T10:34:43;17.60;65.80
44477;DHT22;30180;44.788;10.366;2024-02-21T10:37:13;17.60;65.80
44477;DHT22;30180;44.788;10.366;2024-02-21T10:39:42;17.60;65.80
44477;DHT22;30180;44.788;10.366;2024-02-21T10:42:12;17.60;65.80
44477;DHT22;30180;44.788;10.366;2024-02-21T10:44:41;17.60;65.90
44477;DHT22;30180;44.788;10.366;2024-02-21T10:47:13;17.70;65.90
44477;DHT22;30180;44.788;10.366;2024-02-21T10:49:45;17.70;65.90
44477;DHT22;30180;44.788;10.366;2024-02-21T10:52:37;17.70;65.90
44477;DHT22;30180;44.788;10.366;2024-02-21T10:55:10;17.70;65.90
44477;DHT22;30180;44.788;10.366;2024-02-21T10:57:43;17.70;66.00
44477;DHT22;30180;44.788;10.366;2024-02-21T11:00:15;17.70;66.00
44477;DHT22;30180;44.788;10.366;2024-02-21T11:02:47;17.70;66.00
44477;DHT22;30180;44.788;10.366;2024-02-21T11:05:16;17.80;66.00
44477;DHT22;30180;44.788;10.366;2024-02-21T11:07:46;17.80;66.00
44477;DHT22;30180;44.788;10.366;2024-02-21T11:10:24;17.80;66.00
44477;DHT22;30180;44.788;10.366;2024-02-21T11:12:53;17.80;66.00
44477;DHT22;30180;44.788;10.366;2024-02-21T11:15:26;17.80;66.00
44477;DHT22;30180;44.788;10.366;2024-02-21T11:17:57;17.90;66.10
44477;DHT22;30180;44.788;10.366;2024-02-21T11:20:35;17.90;66.10
44477;DHT22;30180;44.788;10.366;2024-02-21T11:23:04;17.90;66.10
44477;DHT22;30180;44.788;10.366;2024-02-21T11:25:34;17.90;66.10
44477;DHT22;30180;44.788;10.366;2024-02-21T11:28:04;17.90;66.10
44477;DHT22;30180;44.788;10.366;2024-02-21T11:30:35;17.90;66.00
44477;DHT22;30180;44.788;10.366;2024-02-21T11:33:07;17.90;66.00
44477;DHT22;30180;44.788;10.366;2024-02-21T11:35:37;17.90;66.00
44477;DHT22;30180;44.788;10.366;2024-02-21T11:38:10;17.90;66.00
44477;DHT22;30180;44.788;10.366;2024-02-21T11:40:45;17.90;66.00
44477;DHT22;30180;44.788;10.366;2024-02-21T11:43:15;17.90;66.00
44477;DHT22;30180;44.788;10.366;2024-02-21T11:45:44;17.90;65.90
44477;DHT22;30180;44.788;10.366;2024-02-21T11:48:15;18.00;66.00
44477;DHT22;30180;44.788;10.366;2024-02-21T11:50:53;17.90;65.90
44477;DHT22;30180;44.788;10.366;2024-02-21T11:53:23;17.90;65.90
44477;DHT22;30180;44.788;10.366;2024-02-21T11:55:54;17.90;65.90
44477;DHT22;30180;44.788;10.366;2024-02-21T11:58:24;17.90;65.90
44477;DHT22;30180;44.788;10.366;2024-02-21T12:00:53;17.90;65.90
44477;DHT22;30180;44.788;10.366;2024-02-21T12:03:24;17.90;65.90
44477;DHT22;30180;44.788;10.366;2024-02-21T12:05:53;17.90;65.90
44477;DHT22;30180;44.788;10.366;2024-02-21T12:08:24;17.90;65.90
44477;DHT22;30180;44.788;10.366;2024-02-21T12:10:53;17.90;65.90
44477;DHT22;30180;44.788;10.366;2024-02-21T12:13:23;17.90;65.90
44477;DHT22;30180;44.788;10.366;2024-02-21T12:15:52;17.90;65.80
44477;DHT22;30180;44.788;10.366;2024-02-21T12:18:22;17.90;65.80
44477;DHT22;30180;44.788;10.366;2024-02-21T12:20:51;17.90;65.80
44477;DHT22;30180;44.788;10.366;2024-02-21T12:23:20;17.90;65.80
44477;DHT22;30180;44.788;10.366;2024-02-21T12:25:48;17.90;65.80
44477;DHT22;30180;44.788;10.366;2024-02-21T12:28:22;17.90;65.80
44477;DHT22;30180;44.788;10.366;2024-02-21T12:30:51;17.90;65.80
44477;DHT22;30180;44.788;10.366;2024-02-21T12:33:23;17.90;65.80
44477;DHT22;30180;44.788;10.366;2024-02-21T12:35:51;17.90;65.80
44477;DHT22;30180;44.788;10.366;2024-02-21T12:38:23;17.90;65.80
44477;DHT22;30180;44.788;10.366;2024-02-21T12:40:51;17.90;65.80
44477;DHT22;30180;44.788;10.366;2024-02-21T12:43:20;17.90;65.80
44477;DHT22;30180;44.788;10.366;2024-02-21T12:45:50;17.80;65.70
44477;DHT22;30180;44.788;10.366;2024-02-21T12:48:18;17.80;65.70
44477;DHT22;30180;44.788;10.366;2024-02-21T12:50:50;17.80;65.70
44477;DHT22;30180;44.788;10.366;2024-02-21T12:53:20;17.80;65.70
44477;DHT22;30180;44.788;10.366;2024-02-21T12:55:59;17.80;65.70
44477;DHT22;30180;44.788;10.366;2024-02-21T12:58:28;17.80;65.70
44477;DHT22;30180;44.788;10.366;2024-02-21T13:00:59;17.80;65.70
44477;DHT22;30180;44.788;10.366;2024-02-21T13:03:28;17.80;65.70
44477;DHT22;30180;44.788;10.366;2024-02-21T13:06:01;17.80;65.70
44477;DHT22;30180;44.788;10.366;2024-02-21T13:08:31;17.80;65.70
44477;DHT22;30180;44.788;10.366;2024-02-21T13:11:01;17.80;65.70
44477;DHT22;30180;44.788;10.366;2024-02-21T13:13:30;17.80;65.70
44477;DHT22;30180;44.788;10.366;2024-02-21T13:16:00;17.80;65.60
44477;DHT22;30180;44.788;10.366;2024-02-21T13:18:29;17.80;65.60
44477;DHT22;30180;44.788;10.366;2024-02-21T13:21:02;17.80;65.60
44477;DHT22;30180;44.788;10.366;2024-02-21T13:23:31;17.80;65.60
44477;DHT22;30180;44.788;10.366;2024-02-21T13:25:59;17.80;65.60
44477;DHT22;30180;44.788;10.366;2024-02-21T13:28:28;17.70;65.60
44477;DHT22;30180;44.788;10.366;2024-02-21T13:30:57;17.80;65.70
44477;DHT22;30180;44.788;10.366;2024-02-21T13:33:26;17.70;65.60
44477;DHT22;30180;44.788;10.366;2024-02-21T13:35:56;17.70;65.60
44477;DHT22;30180;44.788;10.366;2024-02-21T13:38:26;17.70;65.60
44477;DHT22;30180;44.788;10.366;2024-02-21T13:40:55;17.70;65.60
44477;DHT22;30180;44.788;10.366;2024-02-21T13:43:23;17.70;65.60
44477;DHT22;30180;44.788;10.366;2024-02-21T13:45:57;17.70;65.60
44477;DHT22;30180;44.788;10.366;2024-02-21T13:48:26;17.70;65.60
44477;DHT22;30180;44.788;10.366;2024-02-21T13:50:56;17.70;65.60
44477;DHT22;30180;44.788;10.366;2024-02-21T13:53:27;17.70;65.60
44477;DHT22;30180;44.788;10.366;2024-02-21T13:55:55;17.70;65.60
44477;DHT22;30180;44.788;10.366;2024-02-21T13:58:25;17.70;66.20
44477;DHT22;30180;44.788;10.366;2024-02-21T14:00:54;17.70;65.60
44477;DHT22;30180;44.788;10.366;2024-02-21T14:03:24;17.70;65.60
44477;DHT22;30180;44.788;10.366;2024-02-21T14:05:53;17.70;65.60
44477;DHT22;30180;44.788;10.366;2024-02-21T14:08:26;17.60;65.50
44477;DHT22;30180;44.788;10.366;2024-02-21T14:10:56;17.70;65.60
44477;DHT22;30180;44.788;10.366;2024-02-21T14:13:27;17.60;65.50
44477;DHT22;30180;44.788;10.366;2024-02-21T14:15:56;17.60;65.60
44477;DHT22;30180;44.788;10.366;2024-02-21T14:18:26;17.60;65.60
44477;DHT22;30180;44.788;10.366;2024-02-21T14:20:55;17.60;65.60
44477;DHT22;30180;44.788;10.366;2024-02-21T14:23:25;17.60;65.60
44477;DHT22;30180;44.788;10.366;2024-02-21T14:25:56;17.60;65.60
44477;DHT22;30180;44.788;10.366;2024-02-21T14:28:25;17.60;65.60
44477;DHT22;30180;44.788;10.366;2024-02-21T14:30:54;17.60;65.60
44477;DHT22;30180;44.788;10.366;2024-02-21T14:33:24;17.60;65.60
44477;DHT22;30180;44.788;10.366;2024-02-21T14:35:54;17.60;65.60
44477;DHT22;30180;44.788;10.366;2024-02-21T14:38:23;17.60;65.60
44477;DHT22;30180;44.788;10.366;2024-02-21T14:40:52;17.60;65.60
44477;DHT22;30180;44.788;10.366;2024-02-21T14:43:23;17.60;66.20
44477;DHT22;30180;44.788;10.366;2024-02-21T14:45:54;17.60;65.60
44477;DHT22;30180;44.788;10.366;2024-02-21T14:48:23;17.60;65.60
44477;DHT22;30180;44.788;10.366;2024-02-21T14:50:53;17.60;65.60
44477;DHT22;30180;44.788;10.366;2024-02-21T14:53:22;17.50;65.60
44477;DHT22;30180;44.788;10.366;2024-02-21T14:55:51;17.60;65.60
44477;DHT22;30180;44.788;10.366;2024-02-21T14:58:20;17.60;65.60
44477;DHT22;30180;44.788;10.366;2024-02-21T15:00:50;17.50;65.60
44477;DHT22;30180;44.788;10.366;2024-02-21T15:03:19;17.50;65.60
44477;DHT22;30180;44.788;10.366;2024-02-21T15:05:48;17.50;65.60
44477;DHT22;30180;44.788;10.366;2024-02-21T15:08:17;17.50;65.60
44477;DHT22;30180;44.788;10.366;2024-02-21T15:10:47;17.50;65.60
44477;DHT22;30180;44.788;10.366;2024-02-21T15:13:19;17.50;65.60
44477;DHT22;30180;44.788;10.366;2024-02-21T15:15:51;17.50;65.60
44477;DHT22;30180;44.788;10.366;2024-02-21T15:18:20;17.50;65.60
44477;DHT22;30180;44.788;10.366;2024-02-21T15:20:49;17.50;65.70
44477;DHT22;30180;44.788;10.366;2024-02-21T15:23:18;17.50;65.70
44477;DHT22;30180;44.788;10.366;2024-02-21T15:25:47;17.50;65.70
44477;DHT22;30180;44.788;10.366;2024-02-21T15:28:16;17.50;65.70
44477;DHT22;30180;44.788;10.366;2024-02-21T15:30:44;17.50;66.30